Time;durP1;ratioP1;P1;durP2;ratioP2;P2;SDS_P1;SDS_P2;PMS_P1;PMS_P2;Temp;Humidity;BMP_temperature;BMP_pressure;BME280_temperature;BME280_humidity;BME280_pressure;Samples;Min_cycle;Max_cycle;Signal;HPM_P1;HPM_P2
2023/08/15 00:02:01;;;;;;;;;;;;;;;30.26;41.00;94345.03;4899195;29;6983;-61
2023/08/15 00:04:28;;;;;;;;;;;;;;;30.27;40.77;94343.00;4914861;29;7199;-61
2023/08/15 00:06:54;;;;;;;;;;;;;;;30.29;41.00;94340.44;4912637;29;7236;-63
2023/08/15 00:09:20;;;;;;;;;;;;;;;30.27;40.52;94331.91;4912570;29;9093;-63
2023/08/15 00:12:02;;;;;;;;;;;;;;;30.26;41.38;94325.59;4945519;28;9099;-62
2023/08/15 00:15:15;;;;;;;;;;;;;;;30.28;40.02;94320.25;4962169;28;7164;-63
2023/08/15 00:17:42;;;;;;;;;;;;;;;30.26;39.84;94325.59;4971125;28;9481;-63
2023/08/15 00:20:08;;;;;;;;;;;;;;;30.25;39.70;94321.34;4973513;28;7630;-63
2023/08/15 00:22:34;;;;;;;;;;;;;;;30.30;40.53;94325.25;4983919;28;6995;-63
2023/08/15 00:25:00;;;;;;;;;;;;;;;30.30;40.69;94312.13;4968188;28;9075;-63
2023/08/15 00:27:26;;;;;;;;;;;;;;;30.31;40.55;94312.91;4969304;28;6966;-63
2023/08/15 00:29:52;;;;;;;;;;;;;;;30.30;40.53;94314.91;4954401;28;7317;-63
2023/08/15 00:32:18;;;;;;;;;;;;;;;30.27;40.10;94307.69;4969720;28;6999;-63
2023/08/15 00:34:44;;;;;;;;;;;;;;;30.29;39.94;94315.44;4964018;28;7126;-63
2023/08/15 00:37:13;;;;;;;;;;;;;;;30.32;40.25;94311.63;4966927;28;7247;-63
2023/08/15 00:39:39;;;;;;;;;;;;;;;30.35;40.10;94310.53;5049987;28;9082;-63
2023/08/15 00:42:06;;;;;;;;;;;;;;;30.34;40.59;94307.00;5046548;28;7235;-62
2023/08/15 00:44:40;;;;;;;;;;;;;;;30.31;40.34;94301.81;5058992;28;9247;-63
2023/08/15 00:47:09;;;;;;;;;;;;;;;30.36;39.78;94304.41;5060801;28;7195;-63
2023/08/15 00:49:36;;;;;;;;;;;;;;;30.31;40.05;94297.00;5045676;28;8948;-63
2023/08/15 00:52:06;;;;;;;;;;;;;;;30.27;39.83;94302.13;5072815;28;7268;-63
2023/08/15 00:54:50;;;;;;;;;;;;;;;30.29;40.44;94310.66;5051872;28;7276;-63
2023/08/15 00:57:55;;;;;;;;;;;;;;;30.30;41.02;94303.06;5063367;28;6985;-63
2023/08/15 01:00:32;;;;;;;;;;;;;;;30.29;40.46;94305.09;5011634;28;7315;-63
2023/08/15 01:03:08;;;;;;;;;;;;;;;30.28;40.19;94313.94;4990835;28;9094;-64
2023/08/15 01:05:44;;;;;;;;;;;;;;;30.24;39.33;94317.09;5003749;28;8229;-64
2023/08/15 01:08:35;;;;;;;;;;;;;;;30.24;40.27;94319.84;5013690;28;6875;-62
2023/08/15 01:11:39;;;;;;;;;;;;;;;30.25;40.39;94318.59;4997006;28;7465;-63
2023/08/15 01:14:16;;;;;;;;;;;;;;;30.27;39.47;94313.22;5006986;28;7296;-63
2023/08/15 01:17:00;;;;;;;;;;;;;;;30.26;40.00;94314.50;5027328;28;8471;-63
2023/08/15 01:19:46;;;;;;;;;;;;;;;30.25;40.49;94306.75;5026553;28;7251;-62
2023/08/15 01:22:26;;;;;;;;;;;;;;;30.26;40.45;94302.66;4992065;28;7412;-63
2023/08/15 01:24:52;;;;;;;;;;;;;;;30.27;39.78;94312.47;5015896;28;7195;-63
2023/08/15 01:27:19;;;;;;;;;;;;;;;30.26;40.31;94300.63;4992280;28;8774;-64
2023/08/15 01:29:47;;;;;;;;;;;;;;;30.23;40.24;94290.63;5008935;28;7241;-63
2023/08/15 01:32:44;;;;;;;;;;;;;;;30.25;40.41;94290.84;5046771;28;7226;-62
2023/08/15 01:35:24;;;;;;;;;;;;;;;30.26;40.00;94286.00;5073007;28;9339;-63
2023/08/15 01:38:19;;;;;;;;;;;;;;;30.23;40.76;94287.84;5063627;28;7473;-63
2023/08/15 01:40:50;;;;;;;;;;;;;;;30.24;40.10;94286.56;5080640;28;7172;-63
2023/08/15 01:43:50;;;;;;;;;;;;;;;30.24;39.95;94280.25;5062490;28;9197;-64
2023/08/15 01:46:49;;;;;;;;;;;;;;;30.23;40.81;94285.06;5036677;28;7193;-64
2023/08/15 01:49:54;;;;;;;;;;;;;;;30.23;39.79;94287.13;5023221;28;7243;-63
2023/08/15 01:52:29;;;;;;;;;;;;;;;30.23;40.05;94278.78;5047386;28;7242;-63
2023/08/15 01:54:59;;;;;;;;;;;;;;;30.22;40.61;94285.63;5042549;28;7263;-63
2023/08/15 01:57:54;;;;;;;;;;;;;;;30.23;40.94;94287.13;5043486;28;7206;-63
2023/08/15 02:00:53;;;;;;;;;;;;;;;30.21;40.98;94282.09;5026500;28;7319;-63
2023/08/15 02:03:21;;;;;;;;;;;;;;;30.20;40.37;94286.16;4956260;28;9355;-63
2023/08/15 02:06:27;;;;;;;;;;;;;;;30.21;40.38;94279.31;4970805;28;9119;-63
2023/08/15 02:09:04;;;;;;;;;;;;;;;30.20;40.23;94277.09;4971444;28;9489;-64
2023/08/15 02:11:46;;;;;;;;;;;;;;;30.15;39.90;94273.19;4956080;28;7073;-63
2023/08/15 02:14:12;;;;;;;;;;;;;;;30.14;40.73;94268.94;4969322;28;7237;-63
2023/08/15 02:16:38;;;;;;;;;;;;;;;30.17;40.32;94269.84;4970243;28;7288;-63
2023/08/15 02:19:05;;;;;;;;;;;;;;;30.15;40.37;94262.09;4970885;28;7229;-62
2023/08/15 02:21:47;;;;;;;;;;;;;;;30.17;40.01;94259.50;4980334;28;7233;-63
2023/08/15 02:25:09;;;;;;;;;;;;;;;30.17;39.57;94253.94;4956625;28;8641;-62
2023/08/15 02:27:45;;;;;;;;;;;;;;;30.19;39.95;94251.38;4944372;29;9702;-60
2023/08/15 02:30:11;;;;;;;;;;;;;;;30.12;40.14;94245.78;4911004;29;8833;-59
2023/08/15 02:32:55;;;;;;;;;;;;;;;30.12;40.48;94243.78;4921666;29;6978;-59
2023/08/15 02:35:50;;;;;;;;;;;;;;;30.14;39.66;94248.75;4938641;29;7490;-60
2023/08/15 02:38:19;;;;;;;;;;;;;;;30.12;39.34;94254.13;4886084;29;7431;-60
2023/08/15 02:41:04;;;;;;;;;;;;;;;30.10;40.35;94245.59;4898638;29;8619;-59
2023/08/15 02:43:41;;;;;;;;;;;;;;;30.10;40.65;94240.03;4898104;29;8705;-60
2023/08/15 02:46:35;;;;;;;;;;;;;;;30.12;40.31;94245.78;4929594;29;8211;-59
2023/08/15 02:49:34;;;;;;;;;;;;;;;30.12;40.23;94241.00;4900960;29;8731;-60
2023/08/15 02:52:15;;;;;;;;;;;;;;;30.10;40.44;94231.72;4891164;29;8723;-60
2023/08/15 02:54:49;;;;;;;;;;;;;;;30.11;40.45;94233.94;4896148;29;7400;-60
2023/08/15 02:57:40;;;;;;;;;;;;;;;30.12;40.67;94238.22;4929398;29;7178;-60
2023/08/15 03:00:16;;;;;;;;;;;;;;;30.10;39.34;94246.31;4912285;29;7036;-59
2023/08/15 03:03:00;;;;;;;;;;;;;;;30.04;39.71;94234.63;4968891;28;7396;-60
2023/08/15 03:06:10;;;;;;;;;;;;;;;30.08;40.67;94235.03;4977576;28;7193;-59
2023/08/15 03:08:37;;;;;;;;;;;;;;;30.04;39.54;94220.75;4968232;28;7485;-60
2023/08/15 03:11:15;;;;;;;;;;;;;;;30.08;40.13;94225.97;4975951;28;9039;-60
2023/08/15 03:13:42;;;;;;;;;;;;;;;30.07;39.79;94218.94;4986469;28;9605;-60
2023/08/15 03:16:09;;;;;;;;;;;;;;;30.10;40.74;94231.72;5060714;28;9547;-59
2023/08/15 03:18:52;;;;;;;;;;;;;;;30.07;40.21;94219.69;5055818;28;7116;-60
2023/08/15 03:21:22;;;;;;;;;;;;;;;30.09;39.91;94233.75;5045062;28;9055;-59
2023/08/15 03:23:49;;;;;;;;;;;;;;;30.09;40.28;94230.97;5057210;28;7231;-59
2023/08/15 03:26:17;;;;;;;;;;;;;;;30.08;40.29;94229.47;5051379;28;7201;-59
2023/08/15 03:29:22;;;;;;;;;;;;;;;30.07;39.86;94230.78;5060214;28;9128;-59
2023/08/15 03:31:59;;;;;;;;;;;;;;;30.03;40.16;94216.53;5076773;28;7541;-60
2023/08/15 03:34:25;;;;;;;;;;;;;;;30.04;40.50;94223.53;5064952;28;7217;-60
2023/08/15 03:37:01;;;;;;;;;;;;;;;30.07;40.30;94216.91;5046505;28;7262;-59
2023/08/15 03:39:37;;;;;;;;;;;;;;;30.08;40.03;94223.22;5055997;28;7017;-59
2023/08/15 03:42:32;;;;;;;;;;;;;;;30.07;40.82;94232.81;5048115;28;8720;-59
2023/08/15 03:44:59;;;;;;;;;;;;;;;30.06;40.50;94232.06;4989660;28;7096;-60
2023/08/15 03:47:56;;;;;;;;;;;;;;;30.07;39.72;94228.00;4974242;28;7073;-59
2023/08/15 03:50:24;;;;;;;;;;;;;;;30.07;40.05;94233.56;4973491;28;9600;-60
2023/08/15 03:52:52;;;;;;;;;;;;;;;30.04;40.02;94228.34;4974022;28;7012;-59
2023/08/15 03:55:34;;;;;;;;;;;;;;;30.03;39.77;94230.38;4971077;28;9055;-60
2023/08/15 03:58:35;;;;;;;;;;;;;;;30.04;40.99;94234.63;4972828;28;7339;-60
2023/08/15 04:01:01;;;;;;;;;;;;;;;30.04;39.66;94233.88;4882576;29;7059;-59
2023/08/15 04:03:29;;;;;;;;;;;;;;;30.02;40.27;94236.47;4896957;29;7204;-59
2023/08/15 04:05:56;;;;;;;;;;;;;;;30.00;40.65;94231.47;4896309;29;8391;-59
2023/08/15 04:08:35;;;;;;;;;;;;;;;29.99;40.72;94237.56;4897329;29;9454;-60
2023/08/15 04:11:19;;;;;;;;;;;;;;;29.96;39.91;94236.63;4881924;29;7063;-59
2023/08/15 04:14:00;;;;;;;;;;;;;;;29.95;40.22;94251.75;4873818;29;9092;-60
2023/08/15 04:16:27;;;;;;;;;;;;;;;29.95;40.48;94254.53;4895707;29;7709;-60
2023/08/15 04:18:53;;;;;;;;;;;;;;;29.96;39.80;94253.25;4879014;29;7261;-60
2023/08/15 04:21:19;;;;;;;;;;;;;;;29.97;40.13;94254.72;4912129;28;9214;-59
2023/08/15 04:23:46;;;;;;;;;;;;;;;29.95;40.63;94256.59;4952501;28;9264;-60
2023/08/15 04:26:14;;;;;;;;;;;;;;;29.97;40.61;94263.03;4963264;28;9127;-60
2023/08/15 04:29:16;;;;;;;;;;;;;;;29.98;39.55;94253.44;4984639;28;7007;-60
2023/08/15 04:31:57;;;;;;;;;;;;;;;29.96;39.94;94261.56;4970963;28;7062;-59
2023/08/15 04:34:24;;;;;;;;;;;;;;;29.95;39.74;94259.34;4970155;28;7280;-60
2023/08/15 04:37:27;;;;;;;;;;;;;;;29.94;40.10;94263.41;5028063;28;9027;-60
2023/08/15 04:40:31;;;;;;;;;;;;;;;29.96;39.65;94261.56;4973137;28;7822;-59
2023/08/15 04:43:01;;;;;;;;;;;;;;;29.96;40.26;94269.91;4979756;28;7352;-59
2023/08/15 04:45:51;;;;;;;;;;;;;;;29.97;39.54;94273.41;4990551;28;7189;-59
2023/08/15 04:48:52;;;;;;;;;;;;;;;29.97;40.18;94270.66;4972380;28;8737;-61
2023/08/15 04:51:33;;;;;;;;;;;;;;;29.95;39.89;94293.34;4914479;29;7180;-61
2023/08/15 04:54:00;;;;;;;;;;;;;;;29.95;40.59;94292.63;4914120;29;9380;-61
2023/08/15 04:56:35;;;;;;;;;;;;;;;29.95;40.48;94293.34;4912351;29;7269;-61
2023/08/15 04:59:02;;;;;;;;;;;;;;;29.96;40.12;94294.84;4895534;29;8783;-60
2023/08/15 05:01:28;;;;;;;;;;;;;;;29.93;40.07;94293.16;4911927;29;6990;-61
2023/08/15 05:03:54;;;;;;;;;;;;;;;29.94;40.16;94296.69;4909084;29;6976;-61
2023/08/15 05:06:22;;;;;;;;;;;;;;;29.94;40.57;94300.19;4907613;29;7272;-61
2023/08/15 05:08:48;;;;;;;;;;;;;;;29.96;39.93;94305.19;4907827;29;8428;-60
2023/08/15 05:11:16;;;;;;;;;;;;;;;29.94;39.38;94314.06;4907182;29;9587;-61
2023/08/15 05:13:43;;;;;;;;;;;;;;;29.94;39.41;94313.31;4939812;28;9134;-61
2023/08/15 05:16:09;;;;;;;;;;;;;;;29.92;39.93;94313.13;4967915;28;7345;-60
2023/08/15 05:18:35;;;;;;;;;;;;;;;29.90;40.43;94313.66;4963674;28;8857;-60
2023/08/15 05:21:01;;;;;;;;;;;;;;;29.92;40.10;94324.22;4965360;28;7301;-60
2023/08/15 05:23:27;;;;;;;;;;;;;;;29.88;40.14;94327.34;4983148;28;9419;-60
2023/08/15 05:25:54;;;;;;;;;;;;;;;29.86;40.48;94327.13;5044676;28;7141;-61
2023/08/15 05:28:22;;;;;;;;;;;;;;;29.88;39.58;94321.03;5068360;28;7187;-61
2023/08/15 05:31:00;;;;;;;;;;;;;;;29.86;40.45;94329.91;5050505;28;7913;-61
2023/08/15 05:33:45;;;;;;;;;;;;;;;29.84;39.93;94328.94;5085837;28;7464;-61
2023/08/15 05:36:34;;;;;;;;;;;;;;;29.83;40.44;94336.53;5049585;28;7143;-61
2023/08/15 05:39:33;;;;;;;;;;;;;;;29.90;41.37;94343.41;5054922;28;8471;-62
2023/08/15 05:42:05;;;;;;;;;;;;;;;29.88;40.78;94354.31;5080775;28;7327;-61
2023/08/15 05:44:45;;;;;;;;;;;;;;;29.88;40.83;94352.28;5072080;28;9160;-61
2023/08/15 05:47:20;;;;;;;;;;;;;;;29.89;40.03;94355.78;5066072;28;7250;-61
2023/08/15 05:50:18;;;;;;;;;;;;;;;29.90;40.89;94357.28;5069655;28;7343;-61
2023/08/15 05:53:11;;;;;;;;;;;;;;;29.90;39.89;94360.81;5084324;28;9098;-61
2023/08/15 05:55:53;;;;;;;;;;;;;;;29.87;40.86;94355.59;4971104;28;7258;-62
2023/08/15 05:58:29;;;;;;;;;;;;;;;29.86;39.97;94362.44;4972558;28;7200;-56
2023/08/15 06:01:10;;;;;;;;;;;;;;;29.87;39.93;94369.44;4985121;28;7434;-56
2023/08/15 06:04:28;;;;;;;;;;;;;;;29.86;40.94;94374.28;4968959;28;6986;-56
2023/08/15 06:06:54;;;;;;;;;;;;;;;29.88;40.30;94384.81;4936317;28;9114;-56
2023/08/15 06:09:37;;;;;;;;;;;;;;;29.86;40.13;94388.13;4952705;28;7192;-56
2023/08/15 06:12:12;;;;;;;;;;;;;;;29.83;41.16;94394.75;4951148;29;6995;-55
2023/08/15 06:14:56;;;;;;;;;;;;;;;29.86;40.43;94404.78;4934256;28;7811;-55
2023/08/15 06:18:06;;;;;;;;;;;;;;;29.86;40.23;94413.09;4937512;28;7282;-55
2023/08/15 06:21:11;;;;;;;;;;;;;;;29.86;40.44;94418.63;4951810;28;7028;-55
2023/08/15 06:23:56;;;;;;;;;;;;;;;29.83;40.98;94416.94;4942062;29;7161;-56
2023/08/15 06:26:23;;;;;;;;;;;;;;;29.82;40.19;94423.03;4952063;28;7438;-56
2023/08/15 06:32:33;;;;;;;;;;;;;;;29.76;41.15;94425.91;4913017;29;9082;-55
2023/08/15 06:35:01;;;;;;;;;;;;;;;29.76;40.64;94437.00;4931104;29;7536;-56
2023/08/15 06:38:00;;;;;;;;;;;;;;;29.78;40.54;94434.44;4919185;29;7639;-56
2023/08/15 06:40:28;;;;;;;;;;;;;;;29.79;42.25;94435.94;4890978;29;7179;-56
2023/08/15 06:43:13;;;;;;;;;;;;;;;29.79;41.77;94430.38;4909836;29;7316;-56
2023/08/15 06:46:08;;;;;;;;;;;;;;;29.79;42.03;94428.38;4898470;29;7429;-56
2023/08/15 06:48:47;;;;;;;;;;;;;;;29.79;42.06;94435.94;4911884;29;7282;-56
2023/08/15 06:51:51;;;;;;;;;;;;;;;29.78;42.21;94446.28;4916224;29;9038;-56
2023/08/15 06:54:18;;;;;;;;;;;;;;;29.77;40.95;94444.03;4916410;29;8865;-56
2023/08/15 06:56:44;;;;;;;;;;;;;;;29.73;40.97;94438.78;4894712;29;7326;-55
2023/08/15 06:59:10;;;;;;;;;;;;;;;29.76;41.69;94445.31;4897816;29;7334;-56
2023/08/15 07:01:36;;;;;;;;;;;;;;;29.76;41.98;94448.84;4899149;29;6991;-55
2023/08/15 07:04:02;;;;;;;;;;;;;;;29.73;41.67;94449.16;4898767;29;7535;-55
2023/08/15 07:06:31;;;;;;;;;;;;;;;29.72;41.24;94448.41;4905726;29;7283;-60
2023/08/15 07:08:59;;;;;;;;;;;;;;;29.78;41.07;94462.16;4958906;28;8214;-60
2023/08/15 07:11:25;;;;;;;;;;;;;;;29.78;42.06;94465.69;4986694;28;9281;-59
2023/08/15 07:14:21;;;;;;;;;;;;;;;29.80;41.17;94465.13;4989755;28;9658;-60
2023/08/15 07:16:54;;;;;;;;;;;;;;;29.75;41.45;94466.75;5048021;28;8296;-59
2023/08/15 07:19:23;;;;;;;;;;;;;;;29.74;42.03;94467.28;5066834;28;6988;-60
2023/08/15 07:22:10;;;;;;;;;;;;;;;29.76;42.06;94479.34;5071880;28;7346;-60
2023/08/15 07:24:38;;;;;;;;;;;;;;;29.76;42.61;94470.28;5038392;28;7050;-60
2023/08/15 07:27:15;;;;;;;;;;;;;;;29.80;42.00;94481.78;5056505;28;7045;-60
2023/08/15 07:29:51;;;;;;;;;;;;;;;29.80;41.58;94476.97;5067617;28;6963;-60
2023/08/15 07:32:41;;;;;;;;;;;;;;;29.82;41.57;94484.75;5063408;28;7192;-60
2023/08/15 07:35:16;;;;;;;;;;;;;;;29.82;42.18;94475.72;5084151;28;8783;-61
2023/08/15 07:37:45;;;;;;;;;;;;;;;29.82;42.36;94495.84;5046867;28;8907;-60
2023/08/15 07:40:20;;;;;;;;;;;;;;;29.84;42.05;94493.28;5065112;28;6999;-61
2023/08/15 07:42:49;;;;;;;;;;;;;;;29.82;41.73;94498.63;5065794;28;7224;-61
2023/08/15 07:45:17;;;;;;;;;;;;;;;29.84;41.94;94493.28;5090787;28;9423;-61
2023/08/15 07:47:54;;;;;;;;;;;;;;;29.85;42.79;94500.31;5046087;28;7009;-61
2023/08/15 07:50:36;;;;;;;;;;;;;;;29.86;41.96;94490.75;5072103;28;9011;-61
2023/08/15 07:53:36;;;;;;;;;;;;;;;29.87;43.16;94502.56;5078935;28;7220;-61
2023/08/15 07:56:04;;;;;;;;;;;;;;;29.85;42.42;94499.56;5057967;28;9148;-60
2023/08/15 07:58:39;;;;;;;;;;;;;;;29.85;41.97;94505.88;5053273;28;7189;-61
2023/08/15 08:01:14;;;;;;;;;;;;;;;29.85;43.09;94505.88;5047875;28;8417;-62
2023/08/15 08:04:26;;;;;;;;;;;;;;;29.88;42.08;94510.34;5055389;28;7454;-61
2023/08/15 08:07:01;;;;;;;;;;;;;;;29.88;42.62;94510.34;4984687;28;7473;-61
2023/08/15 08:09:27;;;;;;;;;;;;;;;29.90;42.59;94507.03;4966821;28;7229;-61
2023/08/15 08:11:53;;;;;;;;;;;;;;;29.90;42.65;94513.34;4987234;28;7326;-61
2023/08/15 08:14:23;;;;;;;;;;;;;;;29.91;42.12;94509.25;4984412;28;8764;-61
2023/08/15 08:16:50;;;;;;;;;;;;;;;29.91;42.96;94511.28;4984112;28;9255;-61
2023/08/15 08:19:17;;;;;;;;;;;;;;;29.93;42.28;94515.03;4986922;28;7268;-61
2023/08/15 08:21:43;;;;;;;;;;;;;;;29.93;42.97;94523.34;4979379;28;9228;-61
2023/08/15 08:24:11;;;;;;;;;;;;;;;29.92;43.27;94524.63;4985757;28;9013;-61
2023/08/15 08:26:40;;;;;;;;;;;;;;;29.94;42.57;94524.09;4987976;28;7270;-61
2023/08/15 08:29:06;;;;;;;;;;;;;;;29.94;42.96;94518.53;4973201;28;9146;-61
2023/08/15 08:31:35;;;;;;;;;;;;;;;29.95;42.49;94531.16;4988880;28;7281;-61
2023/08/15 08:34:02;;;;;;;;;;;;;;;29.92;43.25;94527.41;4980375;28;7166;-61
2023/08/15 08:36:28;;;;;;;;;;;;;;;29.93;42.37;94523.34;4967082;28;7231;-61
2023/08/15 08:38:54;;;;;;;;;;;;;;;29.94;42.36;94530.38;4966124;28;7256;-61
2023/08/15 08:41:28;;;;;;;;;;;;;;;29.94;42.54;94527.63;4981797;28;7422;-61
2023/08/15 08:44:01;;;;;;;;;;;;;;;29.95;42.80;94520.03;5029000;28;9038;-61
2023/08/15 08:46:29;;;;;;;;;;;;;;;29.93;43.35;94522.63;5064412;28;9442;-61
2023/08/15 08:48:59;;;;;;;;;;;;;;;29.95;43.29;94526.31;5049425;28;7228;-61
2023/08/15 08:51:30;;;;;;;;;;;;;;;29.97;42.77;94528.56;5054396;28;7574;-61
2023/08/15 08:53:56;;;;;;;;;;;;;;;29.97;43.12;94525.81;5057552;28;7238;-61
2023/08/15 08:56:25;;;;;;;;;;;;;;;29.96;43.70;94529.84;5068031;28;7191;-61
2023/08/15 08:59:23;;;;;;;;;;;;;;;29.95;43.56;94537.41;5048533;28;7152;-61
2023/08/15 09:01:49;;;;;;;;;;;;;;;29.95;42.50;94529.09;4989406;28;9252;-61
2023/08/15 09:04:20;;;;;;;;;;;;;;;29.95;42.51;94526.31;5027266;28;9190;-61
2023/08/15 09:06:46;;;;;;;;;;;;;;;29.94;43.19;94524.84;5006820;28;7785;-61
2023/08/15 09:09:14;;;;;;;;;;;;;;;29.95;42.73;94525.59;5019386;28;7228;-61
2023/08/15 09:11:41;;;;;;;;;;;;;;;29.94;42.62;94524.84;5025653;28;8748;-61
2023/08/15 09:14:10;;;;;;;;;;;;;;;29.96;42.95;94533.38;5008323;28;7222;-61
2023/08/15 09:16:48;;;;;;;;;;;;;;;29.97;43.20;94523.03;5009443;28;7197;-61
2023/08/15 09:19:15;;;;;;;;;;;;;;;29.97;43.67;94520.97;5006748;28;7119;-61
2023/08/15 09:21:44;;;;;;;;;;;;;;;29.97;42.78;94526.53;5009268;28;7318;-61
2023/08/15 09:24:11;;;;;;;;;;;;;;;29.98;43.29;94524.50;5009907;28;9742;-61
2023/08/15 09:26:41;;;;;;;;;;;;;;;29.96;43.47;94527.81;5002923;28;8460;-57
2023/08/15 09:29:07;;;;;;;;;;;;;;;29.97;43.68;94520.25;4996194;28;6983;-56
2023/08/15 09:31:40;;;;;;;;;;;;;;;29.98;43.43;94522.47;5023550;28;8798;-56
2023/08/15 09:34:10;;;;;;;;;;;;;;;29.99;43.51;94512.88;4997087;28;7274;-56
2023/08/15 09:36:36;;;;;;;;;;;;;;;29.99;43.23;94510.13;5006840;28;9159;-56
2023/08/15 09:39:06;;;;;;;;;;;;;;;30.00;43.03;94505.28;5055656;28;9274;-56
2023/08/15 09:41:42;;;;;;;;;;;;;;;29.97;43.59;94509.88;5059927;28;7046;-56
2023/08/15 09:44:09;;;;;;;;;;;;;;;29.99;43.36;94509.38;5082175;28;7036;-56
2023/08/15 09:46:35;;;;;;;;;;;;;;;29.98;42.82;94505.84;5048957;28;7502;-56
2023/08/15 09:49:01;;;;;;;;;;;;;;;29.99;43.91;94512.13;5066110;28;9075;-56
2023/08/15 09:51:36;;;;;;;;;;;;;;;30.00;43.19;94508.06;5079504;28;9119;-56
2023/08/15 09:54:06;;;;;;;;;;;;;;;30.00;43.87;94503.28;5066074;28;7000;-56
2023/08/15 09:56:37;;;;;;;;;;;;;;;29.98;43.29;94497.53;5063075;28;7158;-56
2023/08/15 09:59:03;;;;;;;;;;;;;;;30.00;43.33;94499.75;5079151;28;9355;-56
2023/08/15 10:01:33;;;;;;;;;;;;;;;30.00;43.66;94499.75;5064851;28;8711;-56
2023/08/15 10:04:10;;;;;;;;;;;;;;;29.99;42.61;94503.81;5060724;28;7291;-56
2023/08/15 10:06:42;;;;;;;;;;;;;;;29.98;43.65;94503.06;5048567;28;7175;-56
2023/08/15 10:09:12;;;;;;;;;;;;;;;29.99;43.08;94499.03;5047088;28;7568;-56
2023/08/15 10:11:44;;;;;;;;;;;;;;;29.98;43.53;94494.75;5050245;28;7230;-56
2023/08/15 10:14:18;;;;;;;;;;;;;;;30.01;44.03;94499.22;5061604;28;7075;-56
2023/08/15 10:16:51;;;;;;;;;;;;;;;30.01;42.81;94495.69;5065320;28;7246;-55
2023/08/15 10:19:20;;;;;;;;;;;;;;;30.01;43.58;94488.13;5062376;28;7096;-57
2023/08/15 10:21:54;;;;;;;;;;;;;;;30.01;42.93;94493.69;5070272;28;7243;-56
2023/08/15 10:24:21;;;;;;;;;;;;;;;30.03;43.21;94493.13;5080208;28;7233;-56
2023/08/15 10:26:52;;;;;;;;;;;;;;;30.00;43.54;94492.19;5068496;28;9124;-56
2023/08/15 10:29:20;;;;;;;;;;;;;;;30.02;43.98;94494.41;5060320;28;9097;-56
2023/08/15 10:31:46;;;;;;;;;;;;;;;30.01;43.01;94492.94;5072346;28;7526;-56
2023/08/15 10:34:12;;;;;;;;;;;;;;;30.03;42.87;94493.13;5073510;28;7321;-56
2023/08/15 10:36:44;;;;;;;;;;;;;;;30.02;43.19;94495.16;5067008;28;7679;-61
2023/08/15 10:39:14;;;;;;;;;;;;;;;30.03;43.94;94493.88;5049089;28;9188;-61
2023/08/15 10:41:46;;;;;;;;;;;;;;;30.05;42.74;94494.09;5071532;28;7414;-61
2023/08/15 10:44:23;;;;;;;;;;;;;;;30.06;43.60;94492.78;5064894;28;8793;-61
2023/08/15 10:46:49;;;;;;;;;;;;;;;30.05;43.05;94496.88;5075905;28;7119;-61
2023/08/15 10:49:23;;;;;;;;;;;;;;;30.08;43.63;94495.78;5058741;28;7044;-61
2023/08/15 10:52:02;;;;;;;;;;;;;;;30.06;43.74;94492.78;5091370;28;8769;-61
2023/08/15 10:54:40;;;;;;;;;;;;;;;30.06;43.69;94480.97;5055368;28;8526;-60
2023/08/15 10:57:10;;;;;;;;;;;;;;;30.08;43.10;94484.69;5071874;28;7070;-60
2023/08/15 10:59:36;;;;;;;;;;;;;;;30.09;43.68;94479.88;5064075;28;7225;-61
2023/08/15 11:02:06;;;;;;;;;;;;;;;30.09;43.00;94480.63;5063326;28;7179;-61
2023/08/15 11:04:36;;;;;;;;;;;;;;;30.11;42.69;94483.63;5071067;28;7255;-62
2023/08/15 11:07:25;;;;;;;;;;;;;;;30.12;43.06;94471.25;5058415;28;6856;-61
2023/08/15 11:09:57;;;;;;;;;;;;;;;30.11;43.58;94466.97;5040061;28;7204;-61
2023/08/15 11:12:36;;;;;;;;;;;;;;;30.13;43.08;94469.19;5051762;28;9230;-61
2023/08/15 11:15:09;;;;;;;;;;;;;;;30.14;43.13;94471.44;5061381;28;9004;-61
2023/08/15 11:17:37;;;;;;;;;;;;;;;30.13;43.10;94464.41;5047906;28;6964;-61
2023/08/15 11:20:36;;;;;;;;;;;;;;;30.16;43.24;94468.88;5066125;28;7324;-61
2023/08/15 11:23:15;;;;;;;;;;;;;;;30.16;43.68;94462.56;5055673;28;6995;-61
2023/08/15 11:25:52;;;;;;;;;;;;;;;30.16;43.50;94463.34;5054408;28;7083;-61
2023/08/15 11:28:18;;;;;;;;;;;;;;;30.16;42.89;94457.03;5071397;28;7417;-61
2023/08/15 11:30:46;;;;;;;;;;;;;;;30.14;42.96;94460.34;5045618;28;9034;-61
2023/08/15 11:33:14;;;;;;;;;;;;;;;30.17;43.56;94459.25;5074822;28;8242;-61
2023/08/15 11:35:47;;;;;;;;;;;;;;;30.18;43.26;94460.75;5079797;28;7557;-61
2023/08/15 11:38:20;;;;;;;;;;;;;;;30.19;43.01;94464.28;5080374;28;7088;-61
2023/08/15 11:40:59;;;;;;;;;;;;;;;30.19;42.62;94462.22;5071736;28;6996;-61
2023/08/15 11:43:28;;;;;;;;;;;;;;;30.20;43.17;94460.97;5080900;28;9086;-61
2023/08/15 11:46:14;;;;;;;;;;;;;;;30.21;42.96;94462.44;5062214;28;6993;-61
2023/08/15 11:49:15;;;;;;;;;;;;;;;30.21;42.51;94456.88;5064673;28;7614;-61
2023/08/15 11:52:05;;;;;;;;;;;;;;;30.23;42.48;94446.00;5052218;28;7296;-61
2023/08/15 11:54:33;;;;;;;;;;;;;;;30.25;42.99;94454.53;5047728;28;7658;-61
2023/08/15 11:57:07;;;;;;;;;;;;;;;30.25;42.93;94448.25;5057369;28;7315;-61
2023/08/15 11:59:33;;;;;;;;;;;;;;;30.24;42.78;94457.84;5062596;28;6966;-60
2023/08/15 12:02:01;;;;;;;;;;;;;;;30.24;43.42;94446.75;5057063;28;7249;-61
2023/08/15 12:04:47;;;;;;;;;;;;;;;30.26;43.36;94450.47;5060775;28;6990;-60
2023/08/15 12:07:19;;;;;;;;;;;;;;;30.26;42.43;94442.16;5041473;28;7143;-61
2023/08/15 12:09:55;;;;;;;;;;;;;;;30.27;42.60;94446.41;5074422;28;7301;-61
2023/08/15 12:12:24;;;;;;;;;;;;;;;30.28;42.73;94444.38;5072544;28;7249;-61
2023/08/15 12:14:52;;;;;;;;;;;;;;;30.28;42.44;94442.34;5045168;28;9073;-60
2023/08/15 12:17:22;;;;;;;;;;;;;;;30.29;42.51;94443.09;5055002;28;7907;-61
2023/08/15 12:19:48;;;;;;;;;;;;;;;30.23;43.44;94434.88;5049862;28;9090;-60
2023/08/15 12:22:14;;;;;;;;;;;;;;;30.29;42.49;94443.84;5067655;28;7412;-61
2023/08/15 12:24:43;;;;;;;;;;;;;;;30.30;42.98;94445.31;5049740;28;8911;-61
2023/08/15 12:27:14;;;;;;;;;;;;;;;30.31;43.04;94440.56;5052192;28;6980;-61
2023/08/15 12:29:40;;;;;;;;;;;;;;;30.29;43.39;94438.31;5066679;28;9148;-61
2023/08/15 12:32:14;;;;;;;;;;;;;;;30.31;43.45;94441.31;5068917;28;9244;-61
2023/08/15 12:34:40;;;;;;;;;;;;;;;30.31;43.30;94441.31;5067708;28;9012;-61
2023/08/15 12:37:37;;;;;;;;;;;;;;;30.31;42.42;94430.22;5080679;28;9078;-61
2023/08/15 12:40:18;;;;;;;;;;;;;;;30.30;42.70;94428.66;5040378;28;7196;-61
2023/08/15 12:42:57;;;;;;;;;;;;;;;30.30;43.22;94423.13;5052177;28;8838;-61
2023/08/15 12:45:24;;;;;;;;;;;;;;;30.31;43.48;94419.09;5046574;28;8798;-61
2023/08/15 12:47:51;;;;;;;;;;;;;;;30.31;43.49;94421.88;5035297;28;7246;-61
2023/08/15 12:50:33;;;;;;;;;;;;;;;30.32;42.52;94417.09;5067699;28;7064;-60
2023/08/15 12:53:00;;;;;;;;;;;;;;;30.33;43.31;94413.75;5035419;28;7419;-60
2023/08/15 12:55:47;;;;;;;;;;;;;;;30.35;43.81;94415.97;5052009;28;9336;-61
2023/08/15 12:58:35;;;;;;;;;;;;;;;30.33;43.51;94405.44;5047885;28;7291;-61
2023/08/15 13:01:20;;;;;;;;;;;;;;;30.35;43.75;94413.19;5046517;28;7341;-61
2023/08/15 13:03:55;;;;;;;;;;;;;;;30.37;44.02;94411.38;5033821;28;7484;-61
2023/08/15 13:07:06;;;;;;;;;;;;;;;30.38;43.95;94410.06;5051661;28;9418;-61
2023/08/15 13:09:48;;;;;;;;;;;;;;;30.38;43.48;94396.19;5044299;28;8992;-61
2023/08/15 13:12:28;;;;;;;;;;;;;;;30.38;43.86;94396.19;5049446;28;7246;-61
2023/08/15 13:14:55;;;;;;;;;;;;;;;30.40;42.91;94392.91;5051163;28;7183;-61
2023/08/15 13:17:24;;;;;;;;;;;;;;;30.39;43.42;94391.41;5038616;28;9252;-61
2023/08/15 13:19:53;;;;;;;;;;;;;;;30.41;43.02;94381.25;5069631;28;7095;-61
2023/08/15 13:22:23;;;;;;;;;;;;;;;30.43;43.09;94369.59;5068972;28;9284;-61
2023/08/15 13:24:50;;;;;;;;;;;;;;;30.44;43.20;94366.28;5083460;28;7323;-61
2023/08/15 13:27:16;;;;;;;;;;;;;;;30.44;43.63;94360.75;5066301;28;7411;-61
2023/08/15 13:29:44;;;;;;;;;;;;;;;30.45;42.96;94365.00;5065653;28;7214;-61
2023/08/15 13:32:16;;;;;;;;;;;;;;;30.46;43.64;94363.72;5054609;28;9073;-61
2023/08/15 13:34:48;;;;;;;;;;;;;;;30.46;42.98;94368.53;5080395;28;7058;-61
2023/08/15 13:37:32;;;;;;;;;;;;;;;30.46;43.69;94362.97;5077939;28;7254;-61
2023/08/15 13:40:45;;;;;;;;;;;;;;;30.49;43.56;94364.66;5037927;28;9129;-61
2023/08/15 13:43:13;;;;;;;;;;;;;;;30.50;43.21;94352.25;5087764;28;7353;-61
2023/08/15 13:45:44;;;;;;;;;;;;;;;30.50;44.02;94355.78;5064295;28;7250;-61
2023/08/15 13:48:41;;;;;;;;;;;;;;;30.50;42.90;94347.47;5055375;28;9088;-61